Time;durP1;ratioP1;P1;durP2;ratioP2;P2;SDS_P1;SDS_P2;PMS_P1;PMS_P2;Temp;Humidity;BMP_temperature;BMP_pressure;BME280_temperature;BME280_humidity;BME280_pressure;Samples;Min_cycle;Max_cycle;Signal;HPM_P1;HPM_P2
2022/10/26 00:00:23;;;;;;;13.13;6.30;;;16.50;60.30;;;;;;5072028;28;20456;-87
2022/10/26 00:02:53;;;;;;;14.73;6.47;;;16.50;60.60;;;;;;5071209;28;20444;-88
2022/10/26 00:05:20;;;;;;;6.87;5.70;;;16.40;61.10;;;;;;5073862;28;20457;-87
2022/10/26 00:07:48;;;;;;;8.30;5.90;;;16.50;61.00;;;;;;5054326;28;20854;-88
2022/10/26 00:10:15;;;;;;;8.30;5.20;;;16.50;60.90;;;;;;5071874;28;20986;-88
2022/10/26 00:12:42;;;;;;;11.10;6.03;;;16.50;60.70;;;;;;5075773;28;20440;-87
2022/10/26 00:15:10;;;;;;;7.90;5.90;;;16.50;60.80;;;;;;5073376;28;20489;-86
2022/10/26 00:17:36;;;;;;;10.50;5.40;;;16.50;60.70;;;;;;5072328;28;20960;-87
2022/10/26 00:20:06;;;;;;;13.90;6.50;;;16.40;61.00;;;;;;5071938;28;20468;-87
2022/10/26 00:22:33;;;;;;;19.43;6.30;;;16.00;61.90;;;;;;5065851;28;20454;-87
2022/10/26 00:25:00;;;;;;;13.47;6.43;;;16.00;62.30;;;;;;5070341;28;20492;-87
2022/10/26 00:27:27;;;;;;;12.57;5.80;;;16.10;62.10;;;;;;5058951;28;20448;-87
2022/10/26 00:29:53;;;;;;;10.80;6.17;;;16.10;62.20;;;;;;5068346;28;20460;-87
2022/10/26 00:32:20;;;;;;;9.73;6.63;;;16.20;63.10;;;;;;5083665;28;20452;-87
2022/10/26 00:34:47;;;;;;;13.77;7.00;;;16.30;62.00;;;;;;5056291;28;20471;-88
2022/10/26 00:37:16;;;;;;;11.90;6.77;;;16.30;62.00;;;;;;5073373;28;20546;-87
2022/10/26 00:39:43;;;;;;;15.83;7.77;;;16.20;61.90;;;;;;5076262;28;20459;-87
2022/10/26 00:42:13;;;;;;;27.83;8.00;;;16.20;61.90;;;;;;5063289;28;20448;-88
2022/10/26 00:44:59;;;;;;;11.40;5.97;;;16.30;61.70;;;;;;5070830;28;20963;-87
2022/10/26 00:47:34;;;;;;;9.93;6.57;;;16.30;62.00;;;;;;5074355;28;20444;-87
2022/10/26 00:50:06;;;;;;;13.30;6.37;;;16.30;61.90;;;;;;5073560;28;20448;-87
2022/10/26 00:52:35;;;;;;;14.53;6.63;;;16.20;62.00;;;;;;5062701;28;20476;-87
2022/10/26 00:55:02;;;;;;;14.70;6.97;;;16.20;62.00;;;;;;5045874;28;20483;-87
2022/10/26 00:57:29;;;;;;;14.43;6.60;;;16.10;62.20;;;;;;5071255;28;20449;-88
2022/10/26 00:59:57;;;;;;;9.73;6.77;;;16.10;62.40;;;;;;5045540;28;20463;-87
2022/10/26 01:02:25;;;;;;;15.80;7.17;;;16.20;62.20;;;;;;5068644;28;20464;-87
2022/10/26 01:04:53;;;;;;;11.07;6.63;;;16.20;62.40;;;;;;5062084;28;20979;-85
2022/10/26 01:07:21;;;;;;;13.73;7.53;;;16.10;62.40;;;;;;5073238;28;20476;-88
2022/10/26 01:09:49;;;;;;;10.60;6.80;;;16.10;62.40;;;;;;5074756;28;20872;-88
2022/10/26 01:12:16;;;;;;;19.33;7.20;;;16.10;62.10;;;;;;5063795;28;20526;-87
2022/10/26 01:14:44;;;;;;;16.13;6.77;;;16.10;62.50;;;;;;5053412;28;22094;-88
2022/10/26 01:17:28;;;;;;;14.80;7.10;;;16.10;62.60;;;;;;5058624;28;20521;-87
2022/10/26 01:20:43;;;;;;;17.83;6.70;;;16.20;62.50;;;;;;5071563;28;20444;-86
2022/10/26 01:23:21;;;;;;;10.03;5.73;;;16.20;61.90;;;;;;5062659;28;20948;-87
2022/10/26 01:26:25;;;;;;;11.43;5.70;;;16.20;61.40;;;;;;5071309;28;20547;-87
2022/10/26 01:29:14;;;;;;;6.50;5.63;;;15.90;62.40;;;;;;5004739;28;20538;-85
2022/10/26 01:31:47;;;;;;;8.30;5.13;;;15.50;63.70;;;;;;5081751;28;20460;-88
2022/10/26 01:34:21;;;;;;;9.13;6.10;;;15.50;64.00;;;;;;5054117;28;20440;-87
2022/10/26 01:36:54;;;;;;;7.17;5.53;;;15.50;64.30;;;;;;5062109;28;20475;-86
2022/10/26 01:39:28;;;;;;;6.67;5.47;;;15.70;64.10;;;;;;5070236;28;20455;-87
2022/10/26 01:41:58;;;;;;;10.20;5.77;;;15.70;63.60;;;;;;5075906;28;20459;-87
2022/10/26 01:44:30;;;;;;;12.30;5.30;;;15.60;64.50;;;;;;5072802;28;20468;-87
2022/10/26 01:47:00;;;;;;;18.00;7.50;;;15.50;64.50;;;;;;5070641;28;20523;-87
2022/10/26 01:49:30;;;;;;;11.90;6.57;;;15.20;65.40;;;;;;5070042;28;20448;-87
2022/10/26 01:51:57;;;;;;;10.80;5.90;;;15.00;66.40;;;;;;5072753;28;20456;-87
2022/10/26 01:54:24;;;;;;;10.93;6.80;;;15.20;66.30;;;;;;5067420;28;20451;-86
2022/10/26 01:56:53;;;;;;;10.43;6.30;;;15.50;65.70;;;;;;5073189;28;20483;-87
2022/10/26 01:59:39;;;;;;;9.67;5.50;;;15.70;64.70;;;;;;5076343;28;20912;-87
2022/10/26 02:02:48;;;;;;;13.43;6.13;;;15.70;64.30;;;;;;5072974;28;20891;-87
2022/10/26 02:05:26;;;;;;;14.50;6.33;;;15.80;64.00;;;;;;5072487;28;21386;-87
2022/10/26 02:08:03;;;;;;;20.43;7.17;;;15.90;63.50;;;;;;5069981;28;20437;-85
2022/10/26 02:10:41;;;;;;;10.43;6.40;;;15.70;63.70;;;;;;5071742;28;20458;-88
2022/10/26 02:13:21;;;;;;;9.83;5.50;;;15.50;64.80;;;;;;5056763;28;20543;-87
2022/10/26 02:15:54;;;;;;;6.00;5.10;;;15.60;64.50;;;;;;5072816;28;20855;-87
2022/10/26 02:18:30;;;;;;;9.20;5.70;;;15.60;65.40;;;;;;5047571;28;20450;-87
2022/10/26 02:21:00;;;;;;;8.63;5.83;;;15.70;64.10;;;;;;5073296;28;20503;-87
2022/10/26 02:23:30;;;;;;;10.10;6.20;;;15.60;64.40;;;;;;5070707;28;21010;-88
2022/10/26 02:25:59;;;;;;;10.87;6.20;;;15.60;64.90;;;;;;5058445;28;20804;-88
2022/10/26 02:28:30;;;;;;;6.90;5.43;;;15.60;65.00;;;;;;5075667;28;21184;-87
2022/10/26 02:31:00;;;;;;;10.53;6.77;;;15.70;64.50;;;;;;5073126;28;20436;-87
2022/10/26 02:33:31;;;;;;;17.30;6.10;;;15.80;65.20;;;;;;5078902;28;20459;-88
2022/10/26 02:36:02;;;;;;;10.00;6.47;;;16.00;64.20;;;;;;5071357;28;21233;-87
2022/10/26 02:38:32;;;;;;;9.30;5.07;;;16.10;64.10;;;;;;5055356;28;20539;-87
2022/10/26 02:41:02;;;;;;;6.40;5.40;;;16.20;63.60;;;;;;5070672;28;20451;-87
2022/10/26 02:43:32;;;;;;;9.13;5.57;;;16.30;62.90;;;;;;5057610;28;20463;-87
2022/10/26 02:46:05;;;;;;;8.10;5.33;;;16.10;63.00;;;;;;5058240;28;20464;-87
2022/10/26 02:48:35;;;;;;;13.80;7.13;;;16.00;63.90;;;;;;5055418;28;20733;-87
2022/10/26 02:51:09;;;;;;;8.67;5.60;;;16.10;63.80;;;;;;5069912;28;20555;-87
2022/10/26 02:53:45;;;;;;;8.07;6.23;;;16.20;63.40;;;;;;5051729;28;20453;-87
2022/10/26 02:56:20;;;;;;;9.83;5.90;;;16.30;63.10;;;;;;5045033;28;20547;-88
2022/10/26 02:58:52;;;;;;;11.07;6.33;;;16.20;63.40;;;;;;5045248;28;20454;-86
2022/10/26 03:01:19;;;;;;;9.53;6.47;;;16.20;63.40;;;;;;5071132;28;20449;-87
2022/10/26 03:03:48;;;;;;;7.80;5.80;;;16.30;63.20;;;;;;5069010;28;20965;-87
2022/10/26 03:06:21;;;;;;;10.27;5.87;;;16.40;63.60;;;;;;5035284;28;21175;-87
2022/10/26 03:08:48;;;;;;;7.77;5.87;;;16.40;62.40;;;;;;5037699;28;20447;-86
2022/10/26 03:11:16;;;;;;;9.33;6.20;;;16.40;62.90;;;;;;5074059;28;20456;-88
2022/10/26 03:13:43;;;;;;;10.57;6.60;;;16.30;62.90;;;;;;5040270;28;20463;-88
2022/10/26 03:16:10;;;;;;;9.87;6.53;;;16.30;63.10;;;;;;5073300;28;20467;-89
2022/10/26 03:18:37;;;;;;;10.13;5.77;;;16.40;62.90;;;;;;5061448;28;20477;-87
2022/10/26 03:21:06;;;;;;;11.53;6.30;;;16.40;62.40;;;;;;5070921;28;21147;-87
2022/10/26 03:23:33;;;;;;;9.00;5.83;;;16.40;62.30;;;;;;5068993;28;20972;-87
2022/10/26 03:26:00;;;;;;;8.30;6.03;;;16.40;62.60;;;;;;5068566;28;20460;-86
2022/10/26 03:28:28;;;;;;;10.80;5.90;;;16.40;62.30;;;;;;5051891;28;20545;-87
2022/10/26 03:30:55;;;;;;;12.07;6.37;;;16.30;62.80;;;;;;5068393;28;20548;-86
2022/10/26 03:33:21;;;;;;;27.23;18.00;;;16.30;63.00;;;;;;5073211;28;20455;-87
2022/10/26 03:35:54;;;;;;;42.97;25.20;;;16.40;63.10;;;;;;5075772;28;20477;-87
2022/10/26 03:38:23;;;;;;;33.40;21.73;;;16.50;62.80;;;;;;5072260;28;20934;-86
2022/10/26 03:40:50;;;;;;;24.90;15.50;;;16.50;62.50;;;;;;5061240;28;20515;-86
2022/10/26 03:43:17;;;;;;;23.23;13.40;;;16.50;62.50;;;;;;5072897;28;20528;-87
2022/10/26 03:45:44;;;;;;;16.77;10.50;;;16.60;62.50;;;;;;5071031;28;20495;-88
2022/10/26 03:48:11;;;;;;;22.70;12.40;;;16.60;62.60;;;;;;5075216;28;20840;-87
2022/10/26 03:50:38;;;;;;;22.77;12.23;;;16.50;62.50;;;;;;5074556;28;20982;-88
2022/10/26 03:53:05;;;;;;;19.87;12.70;;;16.50;62.50;;;;;;5057448;28;20559;-87
2022/10/26 03:55:33;;;;;;;14.97;11.03;;;16.50;62.40;;;;;;5075139;28;20675;-87
2022/10/26 03:58:00;;;;;;;14.03;8.17;;;16.60;62.50;;;;;;5053351;28;21046;-87
2022/10/26 04:00:28;;;;;;;10.10;6.70;;;16.60;62.50;;;;;;5046524;28;20737;-87
2022/10/26 04:02:56;;;;;;;9.67;7.40;;;16.40;63.00;;;;;;5038009;28;20480;-86
2022/10/26 04:05:24;;;;;;;12.30;7.03;;;16.40;63.00;;;;;;5062478;28;20468;-88
2022/10/26 04:07:56;;;;;;;14.33;6.93;;;16.50;62.90;;;;;;5060137;28;20862;-87
2022/10/26 04:10:23;;;;;;;11.73;7.87;;;16.50;63.00;;;;;;5072711;28;20854;-87
2022/10/26 04:12:52;;;;;;;8.40;6.40;;;16.50;63.10;;;;;;5080399;28;20466;-87
2022/10/26 04:15:20;;;;;;;9.50;6.50;;;16.60;62.80;;;;;;5071754;28;20564;-88
2022/10/26 04:17:47;;;;;;;9.60;5.87;;;16.50;63.00;;;;;;5059853;28;20452;-87
2022/10/26 04:20:14;;;;;;;11.87;7.93;;;16.60;62.70;;;;;;5073301;28;20447;-87
2022/10/26 04:22:41;;;;;;;11.23;6.47;;;16.60;62.70;;;;;;5076002;28;21042;-86
2022/10/26 04:25:10;;;;;;;8.40;6.10;;;16.60;62.60;;;;;;5064591;28;21326;-87
2022/10/26 04:27:37;;;;;;;9.43;6.00;;;16.60;62.30;;;;;;5053811;28;20521;-86
2022/10/26 04:30:08;;;;;;;10.63;5.60;;;16.60;62.30;;;;;;5069755;28;20444;-87
2022/10/26 04:32:35;;;;;;;11.30;6.77;;;16.60;62.10;;;;;;5073591;28;20981;-87
2022/10/26 04:35:02;;;;;;;9.57;6.87;;;16.50;62.30;;;;;;5070594;28;20869;-88
2022/10/26 04:37:29;;;;;;;12.43;6.67;;;16.40;63.00;;;;;;5088177;27;20514;-88
2022/10/26 04:39:56;;;;;;;10.10;6.00;;;16.40;63.10;;;;;;5048291;28;21443;-86
2022/10/26 04:42:23;;;;;;;16.87;6.87;;;16.50;63.00;;;;;;5071165;28;20455;-88
2022/10/26 04:44:50;;;;;;;10.97;6.83;;;16.60;63.00;;;;;;5070647;28;21000;-88
2022/10/26 04:47:27;;;;;;;9.70;7.40;;;16.60;62.90;;;;;;5067301;28;20443;-88
2022/10/26 04:49:56;;;;;;;8.07;6.50;;;16.60;62.70;;;;;;5055357;28;20574;-87
2022/10/26 04:52:27;;;;;;;8.03;6.73;;;16.60;62.80;;;;;;5073286;28;20463;-88
2022/10/26 04:54:54;;;;;;;9.03;7.20;;;16.60;62.80;;;;;;5077773;28;21172;-87
2022/10/26 04:57:21;;;;;;;11.40;7.70;;;16.50;62.40;;;;;;5044569;28;20471;-89
2022/10/26 04:59:48;;;;;;;11.90;8.43;;;16.60;62.60;;;;;;5068516;28;20460;-88
2022/10/26 05:02:15;;;;;;;10.97;7.90;;;16.60;62.40;;;;;;5069457;28;20447;-88
2022/10/26 05:04:43;;;;;;;13.77;9.00;;;16.40;63.00;;;;;;5068514;28;20809;-88
2022/10/26 05:07:10;;;;;;;15.07;8.90;;;16.40;62.70;;;;;;5066951;28;20521;-88
2022/10/26 05:09:37;;;;;;;11.97;7.97;;;16.40;62.50;;;;;;5068000;28;20545;-88
2022/10/26 05:12:05;;;;;;;10.63;7.70;;;16.30;62.10;;;;;;5069990;28;20518;-88
2022/10/26 05:14:32;;;;;;;14.20;8.07;;;16.20;62.30;;;;;;5073367;28;20805;-87
2022/10/26 05:16:59;;;;;;;11.00;6.90;;;16.20;62.20;;;;;;5071076;28;20477;-87
2022/10/26 05:19:26;;;;;;;15.17;7.27;;;16.20;62.30;;;;;;5053536;28;20460;-87
2022/10/26 05:21:54;;;;;;;11.50;5.90;;;16.20;62.30;;;;;;5053885;28;20441;-88
2022/10/26 05:24:21;;;;;;;7.27;6.40;;;16.20;62.00;;;;;;5067948;28;20440;-87
2022/10/26 05:26:48;;;;;;;15.93;7.23;;;16.20;61.50;;;;;;5082838;28;20533;-88
2022/10/26 05:29:15;;;;;;;10.23;7.40;;;16.10;61.40;;;;;;5066720;28;20440;-87
2022/10/26 05:31:42;;;;;;;12.80;6.33;;;16.10;61.80;;;;;;5067822;28;20471;-88
2022/10/26 05:34:09;;;;;;;7.83;6.30;;;16.20;61.60;;;;;;5072523;28;20455;-86
2022/10/26 05:36:36;;;;;;;10.43;6.27;;;16.00;62.40;;;;;;5057215;28;20484;-87
2022/10/26 05:39:04;;;;;;;9.03;5.83;;;16.10;62.00;;;;;;5068076;28;20960;-87
2022/10/26 05:41:31;;;;;;;11.20;8.20;;;16.10;61.60;;;;;;5050162;28;20445;-87
2022/10/26 05:43:58;;;;;;;8.57;7.67;;;15.80;62.30;;;;;;5056265;28;20554;-87
2022/10/26 05:46:25;;;;;;;10.13;8.10;;;15.60;62.90;;;;;;5054288;28;20476;-88
2022/10/26 05:48:52;;;;;;;11.73;8.10;;;15.70;62.60;;;;;;5074843;28;20459;-88
2022/10/26 05:51:19;;;;;;;15.00;8.50;;;15.80;62.20;;;;;;5054338;28;20447;-88
2022/10/26 05:53:47;;;;;;;14.67;8.87;;;15.90;61.90;;;;;;5068804;28;20444;-89
2022/10/26 05:56:20;;;;;;;10.87;8.00;;;15.80;62.00;;;;;;5056138;28;20794;-88
2022/10/26 05:58:48;;;;;;;11.77;8.20;;;15.90;62.10;;;;;;5064430;28;20448;-88
2022/10/26 06:01:27;;;;;;;13.07;8.03;;;15.90;62.10;;;;;;5068665;28;20460;-89
2022/10/26 06:04:08;;;;;;;13.90;7.97;;;15.80;62.60;;;;;;5052594;28;20451;-89
2022/10/26 06:06:41;;;;;;;14.63;7.87;;;15.80;62.50;;;;;;5069220;28;20467;-89
2022/10/26 06:09:11;;;;;;;12.03;8.07;;;15.80;62.00;;;;;;5067610;28;20938;-87
2022/10/26 06:11:40;;;;;;;12.93;7.10;;;15.60;62.30;;;;;;5067499;28;20444;-88
2022/10/26 06:14:09;;;;;;;16.07;8.90;;;15.70;63.00;;;;;;5068531;28;20458;-87
2022/10/26 06:16:50;;;;;;;12.37;8.07;;;15.70;63.00;;;;;;5068082;28;20484;-87
2022/10/26 06:19:29;;;;;;;15.93;9.17;;;15.70;62.80;;;;;;5064370;28;20449;-88
2022/10/26 06:22:10;;;;;;;20.13;9.57;;;15.70;62.70;;;;;;5069351;28;20983;-87
2022/10/26 06:24:48;;;;;;;35.27;10.70;;;15.70;62.80;;;;;;5071242;28;20444;-89
2022/10/26 06:27:28;;;;;;;18.17;9.27;;;15.80;62.90;;;;;;5065059;28;20444;-88
2022/10/26 06:30:00;;;;;;;13.57;10.00;;;15.80;63.30;;;;;;5056675;28;20452;-87
2022/10/26 06:32:27;;;;;;;13.43;9.27;;;15.90;63.70;;;;;;5058744;28;20845;-88
2022/10/26 06:35:01;;;;;;;12.67;8.87;;;16.00;63.70;;;;;;5058045;28;21104;-86
2022/10/26 06:37:30;;;;;;;15.60;8.60;;;15.90;64.20;;;;;;5065791;28;20963;-88
2022/10/26 06:39:58;;;;;;;10.83;8.17;;;15.70;64.60;;;;;;5070606;28;20456;-87
2022/10/26 06:42:27;;;;;;;12.30;8.43;;;15.60;65.50;;;;;;5048357;28;20451;-85
2022/10/26 06:44:54;;;;;;;16.67;8.60;;;15.70;65.60;;;;;;5066942;28;20460;-88
2022/10/26 06:47:25;;;;;;;9.93;6.87;;;15.80;65.60;;;;;;5067019;28;20443;-89
2022/10/26 06:50:01;;;;;;;14.57;8.40;;;15.80;65.90;;;;;;5041844;28;20788;-88
2022/10/26 06:52:35;;;;;;;13.87;8.40;;;15.80;65.30;;;;;;5069694;28;20458;-88
2022/10/26 06:55:03;;;;;;;11.33;8.57;;;15.60;65.90;;;;;;5052379;28;20473;-88
2022/10/26 06:57:35;;;;;;;18.20;10.00;;;15.70;65.70;;;;;;5068865;28;20479;-88
2022/10/26 07:00:05;;;;;;;11.83;9.30;;;16.00;65.10;;;;;;5067067;28;20454;-88
2022/10/26 07:02:32;;;;;;;16.80;7.67;;;16.10;65.30;;;;;;5068846;28;20440;-87
2022/10/26 07:04:59;;;;;;;9.50;8.13;;;16.20;64.10;;;;;;5070453;28;20922;-88
2022/10/26 07:07:29;;;;;;;12.07;8.80;;;16.10;64.20;;;;;;5063678;28;20475;-88
2022/10/26 07:09:56;;;;;;;9.37;7.23;;;15.90;64.90;;;;;;5056222;28;21090;-86
2022/10/26 07:12:23;;;;;;;11.40;8.70;;;15.90;65.20;;;;;;5072965;28;20448;-87
2022/10/26 07:14:51;;;;;;;15.47;8.43;;;16.00;64.90;;;;;;5052145;28;20854;-87
2022/10/26 07:17:18;;;;;;;12.83;8.70;;;16.20;64.50;;;;;;5074113;28;20468;-88
2022/10/26 07:19:45;;;;;;;11.83;7.90;;;16.30;64.40;;;;;;5069415;28;21090;-88
2022/10/26 07:22:12;;;;;;;19.77;8.27;;;16.30;64.20;;;;;;5054997;28;20451;-88
2022/10/26 07:24:40;;;;;;;10.97;8.30;;;16.20;64.40;;;;;;5070371;28;20808;-88
2022/10/26 07:27:07;;;;;;;11.00;8.20;;;16.10;64.80;;;;;;5068445;28;20462;-88
2022/10/26 07:29:35;;;;;;;17.13;8.77;;;16.00;65.00;;;;;;5071927;28;20449;-88
2022/10/26 07:32:03;;;;;;;14.70;9.20;;;16.20;64.80;;;;;;5071221;28;20940;-88
2022/10/26 07:34:30;;;;;;;22.43;9.13;;;16.10;65.00;;;;;;5052741;28;21097;-87
2022/10/26 07:36:59;;;;;;;11.80;9.20;;;16.10;64.60;;;;;;5055067;28;20467;-88
2022/10/26 07:39:26;;;;;;;16.60;9.03;;;16.00;65.30;;;;;;5078805;28;20452;-88
2022/10/26 07:41:53;;;;;;;12.33;8.70;;;16.00;65.50;;;;;;5061847;28;20506;-89
2022/10/26 07:44:20;;;;;;;11.97;9.00;;;16.20;65.50;;;;;;5071779;28;21074;-88
2022/10/26 07:46:47;;;;;;;14.73;8.37;;;16.30;65.00;;;;;;5068454;28;20468;-88
2022/10/26 07:49:15;;;;;;;10.67;8.53;;;16.40;64.50;;;;;;5062777;28;20457;-89
2022/10/26 07:51:42;;;;;;;14.13;8.10;;;16.40;64.80;;;;;;5072565;28;20457;-88
2022/10/26 07:54:09;;;;;;;11.87;8.20;;;16.30;64.80;;;;;;5035623;28;20449;-89
2022/10/26 07:56:36;;;;;;;9.57;7.40;;;16.30;65.90;;;;;;5071113;28;20460;-88
2022/10/26 07:59:03;;;;;;;13.30;8.80;;;16.10;64.10;;;;;;5060585;28;20456;-88
2022/10/26 08:01:30;;;;;;;13.40;7.73;;;15.90;65.80;;;;;;5060980;28;20976;-88
2022/10/26 08:03:57;;;;;;;18.93;8.50;;;15.80;66.00;;;;;;5069912;28;20547;-88
2022/10/26 08:06:26;;;;;;;13.30;9.27;;;15.80;66.50;;;;;;5069320;28;20468;-88
2022/10/26 08:08:53;;;;;;;9.87;7.57;;;15.90;66.10;;;;;;5062038;28;20456;-87
2022/10/26 08:11:20;;;;;;;12.53;8.20;;;16.10;65.90;;;;;;5089473;27;20456;-88
2022/10/26 08:13:47;;;;;;;10.90;8.23;;;16.20;65.60;;;;;;5057357;28;21080;-88
2022/10/26 08:16:14;;;;;;;14.83;7.80;;;16.20;65.60;;;;;;5069770;28;20472;-88
2022/10/26 08:18:41;;;;;;;15.53;8.70;;;16.40;65.30;;;;;;5069175;28;20489;-88
2022/10/26 08:21:11;;;;;;;10.27;8.30;;;16.50;64.70;;;;;;5061548;28;20455;-88
2022/10/26 08:23:40;;;;;;;14.30;6.83;;;16.30;65.00;;;;;;5054099;28;20866;-88
2022/10/26 08:26:10;;;;;;;11.03;6.27;;;16.10;65.90;;;;;;5067261;28;21092;-87
2022/10/26 08:28:37;;;;;;;10.03;6.90;;;16.00;65.90;;;;;;5053565;28;20443;-88
2022/10/26 08:31:05;;;;;;;8.70;6.90;;;16.10;65.90;;;;;;5049217;28;20449;-89
2022/10/26 08:33:32;;;;;;;12.43;8.00;;;16.30;65.50;;;;;;5067931;28;20812;-88
2022/10/26 08:36:01;;;;;;;13.13;8.13;;;16.50;64.60;;;;;;5050379;28;20543;-88
2022/10/26 08:38:28;;;;;;;15.97;8.43;;;16.60;64.70;;;;;;5070311;28;20567;-88
2022/10/26 08:40:57;;;;;;;19.47;9.27;;;16.60;64.50;;;;;;5058493;28;21070;-86
2022/10/26 08:43:30;;;;;;;14.07;7.90;;;16.80;64.40;;;;;;5061512;28;21248;-87
2022/10/26 08:46:03;;;;;;;10.63;7.87;;;17.00;64.00;;;;;;5072595;28;20465;-87
2022/10/26 08:48:34;;;;;;;12.40;7.33;;;17.10;63.20;;;;;;5076126;28;20920;-89
2022/10/26 08:51:07;;;;;;;11.73;8.50;;;17.00;63.10;;;;;;5065329;28;20459;-88
2022/10/26 08:53:40;;;;;;;12.50;8.00;;;17.00;63.50;;;;;;5068104;28;20441;-88
2022/10/26 08:56:15;;;;;;;8.30;7.27;;;17.00;63.90;;;;;;5055920;28;20473;-87
2022/10/26 08:58:46;;;;;;;11.73;7.50;;;17.00;64.30;;;;;;5070857;28;20470;-87
2022/10/26 09:01:13;;;;;;;13.37;8.20;;;17.00;63.80;;;;;;5068792;28;20440;-87
2022/10/26 09:03:40;;;;;;;9.27;7.67;;;17.00;64.40;;;;;;5067321;28;20448;-87
2022/10/26 09:06:23;;;;;;;13.13;7.10;;;17.20;64.00;;;;;;5070301;28;21087;-87
2022/10/26 09:08:58;;;;;;;8.73;7.83;;;17.30;63.30;;;;;;5066703;28;20444;-88
2022/10/26 09:11:45;;;;;;;16.30;7.50;;;17.20;63.60;;;;;;5067518;28;20458;-88
2022/10/26 09:14:18;;;;;;;8.90;6.50;;;17.30;63.60;;;;;;5068598;28;20445;-88
2022/10/26 09:16:57;;;;;;;8.90;6.50;;;17.20;63.70;;;;;;5068998;28;20475;-88
2022/10/26 09:19:39;;;;;;;10.83;7.13;;;17.10;63.80;;;;;;5068502;28;20450;-88
2022/10/26 09:22:12;;;;;;;14.80;7.70;;;17.10;64.20;;;;;;5060204;28;20449;-88
2022/10/26 09:24:46;;;;;;;11.03;7.40;;;17.00;64.60;;;;;;5071893;28;20440;-88
2022/10/26 09:27:22;;;;;;;12.33;7.10;;;16.90;65.60;;;;;;5069315;28;20437;-88
2022/10/26 09:29:51;;;;;;;9.60;8.23;;;17.10;65.20;;;;;;5069266;28;20967;-88
2022/10/26 09:32:19;;;;;;;9.10;6.80;;;17.20;64.80;;;;;;5071641;28;20459;-88
2022/10/26 09:34:50;;;;;;;10.47;7.30;;;17.20;64.80;;;;;;5068766;28;20562;-88
2022/10/26 09:37:20;;;;;;;14.23;7.53;;;17.40;64.40;;;;;;5050047;28;21443;-87
2022/10/26 09:39:54;;;;;;;10.73;7.33;;;17.60;63.90;;;;;;5068705;28;20440;-89
2022/10/26 09:42:28;;;;;;;14.27;8.27;;;17.80;63.70;;;;;;5068836;28;20433;-87
2022/10/26 09:44:59;;;;;;;9.93;8.27;;;17.90;62.80;;;;;;5053986;28;21235;-88
2022/10/26 09:47:33;;;;;;;10.30;8.20;;;17.80;63.20;;;;;;5033940;28;20457;-88
2022/10/26 09:50:13;;;;;;;11.07;7.30;;;18.00;63.50;;;;;;5066413;28;20517;-87
2022/10/26 09:52:40;;;;;;;16.67;8.93;;;17.60;62.70;;;;;;5054690;28;21107;-87
2022/10/26 09:55:11;;;;;;;9.20;7.20;;;17.60;63.40;;;;;;5072260;28;20455;-87
2022/10/26 09:57:43;;;;;;;16.30;12.40;;;17.60;63.10;;;;;;5072312;28;20472;-88
2022/10/26 10:00:14;;;;;;;9.03;6.90;;;17.60;63.70;;;;;;5070093;28;20451;-88
2022/10/26 10:02:43;;;;;;;9.60;6.80;;;17.50;63.80;;;;;;5046747;28;20462;-87
2022/10/26 10:05:26;;;;;;;12.33;9.20;;;17.60;63.50;;;;;;5069050;28;20463;-88
2022/10/26 10:08:15;;;;;;;12.77;9.10;;;17.90;63.50;;;;;;5073556;28;20436;-88
2022/10/26 10:10:58;;;;;;;12.23;8.03;;;18.00;63.20;;;;;;5053476;28;20475;-88
2022/10/26 10:13:28;;;;;;;7.30;6.50;;;18.10;62.80;;;;;;5053197;28;20561;-85
2022/10/26 10:16:00;;;;;;;12.73;8.07;;;18.00;62.70;;;;;;5070856;28;20464;-87
2022/10/26 10:18:27;;;;;;;21.27;14.03;;;18.10;63.00;;;;;;5066953;28;20464;-88
2022/10/26 10:20:56;;;;;;;9.10;7.43;;;18.10;62.80;;;;;;5071016;28;20445;-88
2022/10/26 10:23:29;;;;;;;14.20;7.60;;;18.10;62.40;;;;;;5073202;28;20455;-87
2022/10/26 10:26:06;;;;;;;34.17;17.20;;;18.20;62.50;;;;;;5070958;28;20487;-88
2022/10/26 10:28:35;;;;;;;36.40;17.60;;;18.30;62.30;;;;;;5060275;28;20444;-88
2022/10/26 10:31:04;;;;;;;17.57;11.73;;;18.40;62.20;;;;;;5045689;28;20449;-87
2022/10/26 10:33:37;;;;;;;12.00;8.77;;;18.50;62.20;;;;;;5069453;28;20440;-88
2022/10/26 10:36:08;;;;;;;23.40;14.50;;;18.50;61.30;;;;;;5070058;28;20528;-88
2022/10/26 10:38:44;;;;;;;22.33;14.70;;;18.60;62.00;;;;;;5058039;28;20467;-88
2022/10/26 10:41:25;;;;;;;31.33;15.30;;;18.50;62.10;;;;;;5056207;28;20452;-87
2022/10/26 10:43:56;;;;;;;13.17;8.20;;;18.30;62.90;;;;;;5050368;28;20585;-89
2022/10/26 10:46:26;;;;;;;11.47;7.63;;;18.40;63.00;;;;;;5070725;28;20540;-88
2022/10/26 10:49:03;;;;;;;11.23;8.97;;;18.60;62.50;;;;;;5068296;28;20435;-88
2022/10/26 10:51:47;;;;;;;13.00;9.20;;;18.80;62.10;;;;;;5042258;28;20449;-87
2022/10/26 10:54:22;;;;;;;12.27;7.90;;;19.00;61.90;;;;;;5050205;28;20731;-88
2022/10/26 10:56:52;;;;;;;11.20;7.27;;;19.10;61.70;;;;;;5052915;28;20478;-87
2022/10/26 10:59:55;;;;;;;8.17;6.33;;;19.00;62.50;;;;;;5068143;28;20471;-87
2022/10/26 11:02:51;;;;;;;25.83;13.50;;;19.00;61.90;;;;;;5053779;28;20642;-88
2022/10/26 11:05:26;;;;;;;13.60;8.53;;;19.00;63.10;;;;;;5070980;28;20471;-89
2022/10/26 11:07:57;;;;;;;14.00;9.50;;;19.10;62.30;;;;;;5070853;28;20445;-87
2022/10/26 11:10:30;;;;;;;11.60;7.13;;;19.10;62.60;;;;;;5072792;28;20455;-86
2022/10/26 11:13:00;;;;;;;8.80;5.50;;;19.40;62.90;;;;;;5074566;28;20955;-87
2022/10/26 11:15:33;;;;;;;10.93;6.23;;;19.50;62.10;;;;;;5073409;28;20474;-87
2022/10/26 11:18:06;;;;;;;7.57;6.00;;;19.60;61.60;;;;;;5048419;28;20471;-87
2022/10/26 11:20:38;;;;;;;7.23;5.40;;;19.60;61.50;;;;;;5042559;28;20487;-88
2022/10/26 11:23:12;;;;;;;7.60;5.57;;;19.50;62.20;;;;;;5066579;28;20444;-86
2022/10/26 11:25:44;;;;;;;8.23;7.27;;;19.40;62.80;;;;;;5068734;28;20469;-87
2022/10/26 11:28:16;;;;;;;8.27;5.43;;;19.50;63.00;;;;;;5064683;28;20436;-87
2022/10/26 11:30:49;;;;;;;11.47;6.50;;;19.90;62.30;;;;;;5067651;28;20444;-88
2022/10/26 11:33:22;;;;;;;15.67;6.63;;;20.10;60.90;;;;;;5066847;28;20986;-87
2022/10/26 11:35:55;;;;;;;7.60;5.93;;;20.30;60.90;;;;;;5067351;28;20463;-87
2022/10/26 11:38:29;;;;;;;7.50;5.67;;;20.60;60.80;;;;;;5067436;28;20469;-87
2022/10/26 11:41:01;;;;;;;8.30;5.20;;;21.00;60.70;;;;;;5069725;28;20444;-86
2022/10/26 11:43:35;;;;;;;9.07;4.90;;;21.40;59.60;;;;;;5071283;28;20463;-88
2022/10/26 11:46:09;;;;;;;6.10;5.10;;;21.60;58.70;;;;;;5069685;28;20863;-88
2022/10/26 11:48:43;;;;;;;5.63;4.60;;;21.70;58.30;;;;;;5040296;28;20444;-88
2022/10/26 11:51:18;;;;;;;9.87;5.33;;;21.90;57.90;;;;;;5064597;28;20645;-87
2022/10/26 11:53:47;;;;;;;12.63;5.10;;;22.00;58.80;;;;;;5068212;28;20454;-87
2022/10/26 11:56:21;;;;;;;6.03;4.63;;;22.40;57.90;;;;;;5068198;28;20498;-88
2022/10/26 11:58:49;;;;;;;6.50;4.97;;;22.20;57.20;;;;;;5039875;28;20474;-87
2022/10/26 12:01:17;;;;;;;4.73;3.70;;;22.30;58.10;;;;;;5052998;28;20451;-88
2022/10/26 12:03:48;;;;;;;5.23;4.50;;;22.40;57.30;;;;;;5066050;28;20463;-88
2022/10/26 12:06:18;;;;;;;8.63;4.50;;;22.70;56.90;;;;;;5071427;28;21376;-88
2022/10/26 12:08:50;;;;;;;4.03;3.73;;;22.90;56.50;;;;;;5071811;28;20462;-88
2022/10/26 12:11:38;;;;;;;4.30;3.90;;;23.20;56.60;;;;;;5069741;28;20636;-87
2022/10/26 12:14:17;;;;;;;6.23;3.40;;;23.40;56.50;;;;;;5077281;28;20440;-86
2022/10/26 12:16:51;;;;;;;5.40;2.87;;;23.60;55.10;;;;;;5060936;28;20983;-88
2022/10/26 12:19:25;;;;;;;3.73;2.77;;;23.80;56.30;;;;;;5070515;28;20458;-89
2022/10/26 12:21:53;;;;;;;4.27;2.87;;;23.60;55.20;;;;;;5071536;28;20950;-89
2022/10/26 12:24:29;;;;;;;7.70;4.00;;;23.60;55.80;;;;;;5069102;28;20849;-89
2022/10/26 12:26:57;;;;;;;4.37;2.87;;;23.60;55.60;;;;;;5087925;27;20482;-88
2022/10/26 12:29:42;;;;;;;5.97;2.40;;;23.80;56.70;;;;;;5067826;28;20448;-87
2022/10/26 12:32:49;;;;;;;8.90;4.33;;;24.00;56.20;;;;;;5069890;28;20501;-87
2022/10/26 12:35:40;;;;;;;6.20;4.03;;;24.20;55.00;;;;;;5070129;28;20465;-87
2022/10/26 12:38:52;;;;;;;3.17;2.87;;;24.30;54.60;;;;;;5071763;28;20444;-87
2022/10/26 12:41:22;;;;;;;5.53;2.60;;;24.30;54.90;;;;;;4988062;28;20843;-87
2022/10/26 12:43:50;;;;;;;4.80;2.90;;;24.40;54.10;;;;;;5047851;28;20458;-88
2022/10/26 12:46:43;;;;;;;5.33;2.40;;;24.50;53.90;;;;;;5069731;28;20472;-87
2022/10/26 12:49:59;;;;;;;8.73;2.80;;;24.60;53.30;;;;;;5069551;28;20464;-87
2022/10/26 12:52:52;;;;;;;2.73;2.53;;;24.50;53.50;;;;;;5070869;28;21039;-88
2022/10/26 12:55:54;;;;;;;5.37;4.23;;;24.60;53.40;;;;;;5042469;28;20757;-88
2022/10/26 12:58:42;;;;;;;7.57;3.50;;;24.80;53.40;;;;;;5067574;28;20440;-88
2022/10/26 13:01:28;;;;;;;5.53;1.83;;;24.70;53.20;;;;;;5072179;28;20450;-88
2022/10/26 13:04:06;;;;;;;3.30;1.80;;;24.50;53.10;;;;;;5056637;28;20537;-87